Terminal Aerodrome Forecast
Issued by NWS Sterling, VA

Home | Current Version | Previous Version | Text Only | Print | Product List | Glossary On
Versions: 1 2 3 4 5 6 7 8 9 10 11 12
357
FTUS41 KLWX 271737
TAFCHO
TAF
KCHO 271737Z 2718/2818 17006KT P6SM FEW050
     FM272000 18005KT P6SM VCTS SCT050CB
     FM280200 VRB03KT P6SM SCT050
     FM280600 VRB03KT 5SM BR FEW050
     FM281400 19004KT P6SM SKC=

USA.gov is the U.S. government's official web portal to all federal, state and local government web resources and services.